createdAt,value
2017-06-18T00:00:17.174Z,19.8
2017-06-18T00:00:57.718Z,19.77
2017-06-18T00:01:38.263Z,19.78
2017-06-18T00:02:18.803Z,19.83
2017-06-18T00:02:59.347Z,19.76
2017-06-18T00:03:39.898Z,19.78
2017-06-18T00:04:20.447Z,19.77
2017-06-18T00:05:00.998Z,19.83
2017-06-18T00:05:41.546Z,19.8
2017-06-18T00:06:22.095Z,19.78
2017-06-18T00:07:02.640Z,19.88
2017-06-18T00:07:43.172Z,19.81
2017-06-18T00:08:23.710Z,19.78
2017-06-18T00:09:04.249Z,19.81
2017-06-18T00:09:44.785Z,19.84
2017-06-18T00:10:25.335Z,19.86
2017-06-18T00:11:05.883Z,19.83
2017-06-18T00:11:46.436Z,19.76
2017-06-18T00:12:26.973Z,19.76
2017-06-18T00:13:07.516Z,19.84
2017-06-18T00:13:48.055Z,19.76
2017-06-18T00:14:28.603Z,19.8
2017-06-18T00:15:09.146Z,19.81
2017-06-18T00:15:49.671Z,19.71
2017-06-18T00:16:30.218Z,19.78
2017-06-18T00:17:10.754Z,19.78
2017-06-18T00:17:51.305Z,19.86
2017-06-18T00:18:31.841Z,19.8
2017-06-18T00:19:12.387Z,19.74
2017-06-18T00:19:52.932Z,19.78
2017-06-18T00:20:33.462Z,19.76
2017-06-18T00:21:14.008Z,19.76
2017-06-18T00:21:54.563Z,19.73
2017-06-18T00:23:33.387Z,19.76
2017-06-18T00:24:13.902Z,19.78
2017-06-18T00:24:54.444Z,19.86
2017-06-18T00:25:34.986Z,19.76
2017-06-18T00:26:15.524Z,19.78
2017-06-18T00:26:56.063Z,19.8
2017-06-18T00:27:36.619Z,19.81
2017-06-18T00:28:17.151Z,19.83
2017-06-18T00:28:57.692Z,19.71
2017-06-18T00:29:38.233Z,19.78
2017-06-18T00:30:18.771Z,19.74
2017-06-18T00:30:59.319Z,19.8
2017-06-18T00:31:39.857Z,19.91
2017-06-18T00:32:20.398Z,19.84
2017-06-18T00:33:00.935Z,19.8
2017-06-18T00:33:41.473Z,19.77
2017-06-18T00:34:22.014Z,19.91
2017-06-18T00:35:02.545Z,19.88
2017-06-18T00:35:43.079Z,19.74
2017-06-18T00:36:23.614Z,19.91
2017-06-18T00:37:04.179Z,19.95
2017-06-18T00:37:44.713Z,19.88
2017-06-18T00:38:25.263Z,19.83
2017-06-18T00:39:05.789Z,19.94
2017-06-18T00:39:46.339Z,19.87
2017-06-18T00:40:26.878Z,19.84
2017-06-18T00:41:07.428Z,19.83
2017-06-18T00:41:47.976Z,19.86
2017-06-18T00:42:28.520Z,19.87
2017-06-18T00:43:09.069Z,19.86
2017-06-18T00:43:49.698Z,19.88
2017-06-18T00:44:30.187Z,19.86
2017-06-18T00:45:10.727Z,19.87
2017-06-18T00:45:51.274Z,20.02
2017-06-18T00:46:31.815Z,19.87
2017-06-18T00:47:12.353Z,19.94
2017-06-18T00:47:52.889Z,19.88
2017-06-18T00:48:33.444Z,20.01
2017-06-18T00:49:13.988Z,19.87
2017-06-18T00:49:54.524Z,20.01
2017-06-18T00:50:35.067Z,19.92
2017-06-18T00:51:15.604Z,19.92
2017-06-18T00:51:56.151Z,19.92
2017-06-18T00:52:36.775Z,19.95
2017-06-18T00:53:17.312Z,19.87
2017-06-18T00:53:57.852Z,19.83
2017-06-18T00:54:38.374Z,19.86
2017-06-18T00:55:18.916Z,19.83
2017-06-18T00:55:59.467Z,19.78
2017-06-18T00:56:40.027Z,19.86
2017-06-18T00:57:20.572Z,19.8
2017-06-18T00:58:01.116Z,19.77
2017-06-18T00:58:41.660Z,19.74
2017-06-18T00:59:22.211Z,19.76
2017-06-18T01:00:02.746Z,19.78
2017-06-18T01:00:43.296Z,19.81
2017-06-18T01:01:23.842Z,19.76
2017-06-18T01:02:04.385Z,19.69
2017-06-18T01:02:44.927Z,19.73
2017-06-18T01:03:25.463Z,19.69
2017-06-18T01:04:05.994Z,19.78
2017-06-18T01:04:46.535Z,19.74
2017-06-18T01:05:27.083Z,19.74
2017-06-18T01:06:07.627Z,19.73
2017-06-18T01:06:48.172Z,19.76
2017-06-18T01:07:28.723Z,19.78
2017-06-18T01:08:09.263Z,19.8
2017-06-18T01:08:49.814Z,19.76
2017-06-18T01:09:30.356Z,19.71
2017-06-18T01:10:10.907Z,19.74
2017-06-18T01:10:51.460Z,19.66
2017-06-18T01:11:32.011Z,19.74
2017-06-18T01:12:12.610Z,19.71
2017-06-18T01:12:53.152Z,19.71
2017-06-18T01:13:33.680Z,19.76
2017-06-18T01:14:14.228Z,19.71
2017-06-18T01:14:54.773Z,19.73
2017-06-18T01:15:35.309Z,19.68
2017-06-18T01:16:15.855Z,19.68
2017-06-18T01:16:56.392Z,19.76
2017-06-18T01:17:36.947Z,19.71
2017-06-18T01:18:17.500Z,19.73
2017-06-18T01:18:58.045Z,19.73
2017-06-18T01:19:38.596Z,19.63
2017-06-18T01:20:19.138Z,19.71
2017-06-18T01:20:59.667Z,19.74
2017-06-18T01:21:40.201Z,19.73
2017-06-18T01:22:20.743Z,19.73
2017-06-18T01:23:01.292Z,19.71
2017-06-18T01:23:41.841Z,19.73
2017-06-18T01:24:22.382Z,19.73
2017-06-18T01:25:02.930Z,19.73
2017-06-18T01:25:43.476Z,19.73
2017-06-18T01:26:24.032Z,19.66
2017-06-18T01:27:04.582Z,19.68
2017-06-18T01:27:45.134Z,19.68
2017-06-18T01:28:25.678Z,19.66
2017-06-18T01:29:06.262Z,19.66
2017-06-18T01:29:46.760Z,19.59
2017-06-18T01:30:27.317Z,19.66
2017-06-18T01:31:07.864Z,19.63
2017-06-18T01:31:48.410Z,19.62
2017-06-18T01:32:28.957Z,19.61
2017-06-18T01:33:09.501Z,19.58
2017-06-18T01:33:50.027Z,19.56
2017-06-18T01:34:30.570Z,19.61
2017-06-18T01:35:11.119Z,19.58
2017-06-18T01:35:51.642Z,19.63
2017-06-18T01:36:32.186Z,19.59
2017-06-18T01:37:12.737Z,19.5
2017-06-18T01:37:53.282Z,19.47
2017-06-18T01:38:33.822Z,19.47
2017-06-18T01:39:14.373Z,19.51
2017-06-18T01:39:54.908Z,19.46
2017-06-18T01:40:35.472Z,19.5
2017-06-18T01:41:16.023Z,19.5
2017-06-18T01:41:56.571Z,19.51
2017-06-18T01:42:37.118Z,19.55
2017-06-18T01:43:17.660Z,19.5
2017-06-18T01:43:58.192Z,19.51
2017-06-18T01:44:38.733Z,19.51
2017-06-18T01:45:19.275Z,19.54
2017-06-18T01:45:59.809Z,19.51
2017-06-18T01:46:40.360Z,19.62
2017-06-18T01:47:20.905Z,19.48
2017-06-18T01:48:01.449Z,19.5
2017-06-18T01:48:42.005Z,19.51
2017-06-18T01:49:22.557Z,19.51
2017-06-18T01:50:03.100Z,19.51
2017-06-18T01:50:43.649Z,19.51
2017-06-18T01:51:24.190Z,19.48
2017-06-18T01:52:04.733Z,19.51
2017-06-18T01:52:45.288Z,19.58
2017-06-18T01:53:25.837Z,19.51
2017-06-18T01:54:06.384Z,19.51
2017-06-18T01:54:46.930Z,19.51
2017-06-18T01:55:27.474Z,19.58
2017-06-18T01:56:08.003Z,19.56
2017-06-18T01:56:48.557Z,19.51
2017-06-18T01:57:29.095Z,19.54
2017-06-18T01:58:09.635Z,19.62
2017-06-18T01:58:50.181Z,19.56
2017-06-18T01:59:30.720Z,19.51
2017-06-18T02:00:11.264Z,19.63
2017-06-18T02:00:51.803Z,19.61
2017-06-18T02:01:32.351Z,19.62
2017-06-18T02:02:12.895Z,19.55
2017-06-18T02:02:53.440Z,19.58
2017-06-18T02:03:33.983Z,19.63
2017-06-18T02:04:14.551Z,19.63
2017-06-18T02:04:55.081Z,19.59
2017-06-18T02:05:35.627Z,19.62
2017-06-18T02:06:16.163Z,19.55
2017-06-18T02:06:56.711Z,19.58
2017-06-18T02:07:37.259Z,19.62
2017-06-18T02:08:17.800Z,19.56
2017-06-18T02:08:58.343Z,19.61
2017-06-18T02:09:38.892Z,19.59
2017-06-18T02:10:19.441Z,19.59
2017-06-18T02:10:59.983Z,19.58
2017-06-18T02:11:40.524Z,19.61
2017-06-18T02:12:21.064Z,19.61
2017-06-18T02:13:01.610Z,19.58
2017-06-18T02:13:42.161Z,19.51
2017-06-18T02:14:22.749Z,19.51
2017-06-18T02:15:03.300Z,19.51
2017-06-18T02:15:43.833Z,19.48
2017-06-18T02:16:24.386Z,19.48
2017-06-18T02:17:04.941Z,19.54
2017-06-18T02:17:45.483Z,19.5
2017-06-18T02:18:26.026Z,19.56
2017-06-18T02:19:06.580Z,19.51
2017-06-18T02:19:47.114Z,19.51
2017-06-18T02:20:27.638Z,19.54
2017-06-18T02:21:08.182Z,19.51
2017-06-18T02:21:48.726Z,19.54
2017-06-18T02:22:29.269Z,19.58
2017-06-18T02:23:09.812Z,19.54
2017-06-18T02:23:50.350Z,19.56
2017-06-18T02:24:30.890Z,19.61
2017-06-18T02:25:11.444Z,19.51
2017-06-18T02:25:51.993Z,19.59
2017-06-18T02:26:32.533Z,19.56
2017-06-18T02:27:13.073Z,19.5
2017-06-18T02:27:53.618Z,19.51
2017-06-18T02:28:34.152Z,19.51
2017-06-18T02:29:14.692Z,19.48
2017-06-18T02:29:55.233Z,19.55
2017-06-18T02:30:35.765Z,19.54
2017-06-18T02:31:16.318Z,19.43
2017-06-18T02:31:56.844Z,19.4
2017-06-18T02:32:37.383Z,19.43
2017-06-18T02:33:17.939Z,19.37
2017-06-18T02:33:58.473Z,19.36
2017-06-18T02:34:39.021Z,19.25
2017-06-18T02:35:19.568Z,19.37
2017-06-18T02:36:00.116Z,19.32
2017-06-18T02:36:40.656Z,19.28
2017-06-18T02:37:21.193Z,19.29
2017-06-18T02:38:01.723Z,19.22
2017-06-18T02:38:42.284Z,19.23
2017-06-18T02:39:22.806Z,19.23
2017-06-18T02:40:03.345Z,19.16
2017-06-18T02:40:43.886Z,19.23
2017-06-18T02:41:24.433Z,19.16
2017-06-18T02:42:04.969Z,19.18
2017-06-18T02:42:45.517Z,19.06
2017-06-18T02:43:26.050Z,19.1
2017-06-18T02:44:06.592Z,19
2017-06-18T02:44:47.133Z,19.06
2017-06-18T02:45:27.673Z,18.99
2017-06-18T02:46:08.213Z,18.91
2017-06-18T02:46:48.746Z,19
2017-06-18T02:47:29.290Z,19
2017-06-18T02:48:09.833Z,18.95
2017-06-18T02:48:50.354Z,18.91
2017-06-18T02:49:30.883Z,18.91
2017-06-18T02:50:11.447Z,18.9
2017-06-18T02:50:51.968Z,18.88
2017-06-18T02:51:32.513Z,18.85
2017-06-18T02:52:13.054Z,18.88
2017-06-18T02:52:53.595Z,18.88
2017-06-18T02:53:34.135Z,18.88
2017-06-18T02:54:14.684Z,18.84
2017-06-18T02:54:55.213Z,18.76
2017-06-18T02:55:35.753Z,18.81
2017-06-18T02:56:16.282Z,18.76
2017-06-18T02:56:56.825Z,18.75
2017-06-18T02:57:37.380Z,18.73
2017-06-18T02:58:17.923Z,18.7
2017-06-18T02:58:58.480Z,18.76
2017-06-18T02:59:39.020Z,18.7
2017-06-18T03:00:19.563Z,18.65
2017-06-18T03:01:00.096Z,18.63
2017-06-18T03:01:40.634Z,18.54
2017-06-18T03:02:21.165Z,18.55
2017-06-18T03:03:01.706Z,18.48
2017-06-18T03:03:42.234Z,18.45
2017-06-18T03:04:22.782Z,18.39
2017-06-18T03:05:03.307Z,18.35
2017-06-18T03:05:43.848Z,18.29
2017-06-18T03:06:24.388Z,18.35
2017-06-18T03:07:04.928Z,18.33
2017-06-18T03:07:45.467Z,18.32
2017-06-18T03:08:26.012Z,18.25
2017-06-18T03:09:06.540Z,18.26
2017-06-18T03:09:47.071Z,18.29
2017-06-18T03:10:27.615Z,18.3
2017-06-18T03:11:08.165Z,18.2
2017-06-18T03:11:48.710Z,18.21
2017-06-18T03:12:29.252Z,18.12
2017-06-18T03:13:09.796Z,18.14
2017-06-18T03:13:50.333Z,18.17
2017-06-18T03:14:30.876Z,18.17
2017-06-18T03:15:11.430Z,18.08
2017-06-18T03:15:51.945Z,18.11
2017-06-18T03:16:32.530Z,17.99
2017-06-18T03:17:13.073Z,18.05
2017-06-18T03:17:53.599Z,18.03
2017-06-18T03:18:34.145Z,18.08
2017-06-18T03:19:14.696Z,18.08
2017-06-18T03:19:55.243Z,18.08
2017-06-18T03:20:35.783Z,18.08
2017-06-18T03:21:16.319Z,18.05
2017-06-18T03:21:56.861Z,18.07
2017-06-18T03:22:37.406Z,18.07
2017-06-18T03:23:17.948Z,18.1
2017-06-18T03:23:58.491Z,18.08
2017-06-18T03:24:39.038Z,18.1
2017-06-18T03:25:19.581Z,18.08
2017-06-18T03:26:00.120Z,18.08
2017-06-18T03:26:40.669Z,18.07
2017-06-18T03:27:21.225Z,17.99
2017-06-18T03:28:01.762Z,18.07
2017-06-18T03:28:42.282Z,18.02
2017-06-18T03:29:22.823Z,18.03
2017-06-18T03:30:03.365Z,18
2017-06-18T03:30:43.896Z,18.05
2017-06-18T03:31:24.427Z,18.03
2017-06-18T03:32:04.966Z,17.99
2017-06-18T03:32:45.533Z,17.96
2017-06-18T03:33:26.079Z,18.07
2017-06-18T03:34:06.627Z,18
2017-06-18T03:34:47.170Z,17.96
2017-06-18T03:35:27.715Z,17.89
2017-06-18T03:36:08.266Z,17.92
2017-06-18T03:36:48.809Z,17.82
2017-06-18T03:37:29.348Z,17.86
2017-06-18T03:38:09.893Z,17.84
2017-06-18T03:38:50.439Z,17.79
2017-06-18T03:39:30.983Z,17.64
2017-06-18T03:40:11.531Z,17.71
2017-06-18T03:40:52.052Z,17.68
2017-06-18T03:41:32.599Z,17.64
2017-06-18T03:42:13.137Z,17.55
2017-06-18T03:42:53.674Z,17.56
2017-06-18T03:43:34.219Z,17.59
2017-06-18T03:44:14.760Z,17.58
2017-06-18T03:44:55.302Z,17.55
2017-06-18T03:45:35.836Z,17.59
2017-06-18T03:46:16.373Z,17.62
2017-06-18T03:46:56.913Z,17.56
2017-06-18T03:47:37.444Z,17.55
2017-06-18T03:48:17.984Z,17.54
2017-06-18T03:48:58.530Z,17.56
2017-06-18T03:49:39.077Z,17.56
2017-06-18T03:50:19.628Z,17.56
2017-06-18T03:51:00.196Z,17.46
2017-06-18T03:51:40.748Z,17.55
2017-06-18T03:52:21.285Z,17.56
2017-06-18T03:53:01.860Z,17.52
2017-06-18T03:53:42.386Z,17.49
2017-06-18T03:54:22.941Z,17.49
2017-06-18T03:55:03.480Z,17.58
2017-06-18T03:55:44.023Z,17.52
2017-06-18T03:56:24.566Z,17.52
2017-06-18T03:57:05.104Z,17.44
2017-06-18T03:57:45.645Z,17.51
2017-06-18T03:58:26.180Z,17.46
2017-06-18T03:59:06.720Z,17.55
2017-06-18T03:59:47.257Z,17.51
2017-06-18T04:00:27.793Z,17.51
2017-06-18T04:01:08.357Z,17.49
2017-06-18T04:01:48.895Z,17.48
2017-06-18T04:02:29.446Z,17.48
2017-06-18T04:03:09.987Z,17.52
2017-06-18T04:03:50.538Z,17.52
2017-06-18T04:04:31.086Z,17.52
2017-06-18T04:05:11.634Z,17.52
2017-06-18T04:05:52.182Z,17.54
2017-06-18T04:06:32.763Z,17.49
2017-06-18T04:07:13.305Z,17.43
2017-06-18T04:07:53.851Z,17.46
2017-06-18T04:08:34.402Z,17.44
2017-06-18T04:09:14.953Z,17.4
2017-06-18T04:09:55.503Z,17.37
2017-06-18T04:10:36.064Z,17.41
2017-06-18T04:11:16.601Z,17.34
2017-06-18T04:11:57.151Z,17.3
2017-06-18T04:12:37.704Z,17.31
2017-06-18T04:13:18.261Z,17.33
2017-06-18T04:13:58.811Z,17.22
2017-06-18T04:14:39.359Z,17.21
2017-06-18T04:15:19.896Z,17.23
2017-06-18T04:16:00.443Z,17.21
2017-06-18T04:16:40.986Z,17.22
2017-06-18T04:17:21.538Z,17.31
2017-06-18T04:18:02.080Z,17.31
2017-06-18T04:18:42.624Z,17.25
2017-06-18T04:19:23.157Z,17.26
2017-06-18T04:20:03.695Z,17.19
2017-06-18T04:20:44.237Z,17.16
2017-06-18T04:21:24.780Z,17.16
2017-06-18T04:22:05.324Z,17.16
2017-06-18T04:22:45.867Z,17.19
2017-06-18T04:23:26.413Z,17.18
2017-06-18T04:24:06.954Z,17.12
2017-06-18T04:24:47.498Z,17.19
2017-06-18T04:25:28.046Z,17.08
2017-06-18T04:26:08.593Z,17.21
2017-06-18T04:26:49.138Z,17.16
2017-06-18T04:27:29.679Z,17.11
2017-06-18T04:28:10.211Z,17.06
2017-06-18T04:28:50.756Z,17.08
2017-06-18T04:29:31.295Z,17.08
2017-06-18T04:30:11.842Z,17.08
2017-06-18T04:30:52.386Z,17.06
2017-06-18T04:31:32.937Z,17.07
2017-06-18T04:32:13.486Z,17.18
2017-06-18T04:32:54.031Z,17.08
2017-06-18T04:33:34.582Z,17.06
2017-06-18T04:34:15.147Z,17.08
2017-06-18T04:34:55.695Z,17.08
2017-06-18T04:35:36.251Z,17.11
2017-06-18T04:36:16.781Z,17.04
2017-06-18T04:36:57.330Z,17.16
2017-06-18T04:37:37.870Z,17.07
2017-06-18T04:38:18.417Z,17.12
2017-06-18T04:38:58.975Z,17.15
2017-06-18T04:39:39.518Z,17.18
2017-06-18T04:40:20.062Z,17.21
2017-06-18T04:41:00.606Z,17.16
2017-06-18T04:41:41.137Z,17.26
2017-06-18T04:42:21.679Z,17.23
2017-06-18T04:43:02.219Z,17.15
2017-06-18T04:43:42.772Z,17.26
2017-06-18T04:44:23.307Z,17.3
2017-06-18T04:45:03.849Z,17.3
2017-06-18T04:45:44.388Z,17.26
2017-06-18T04:46:24.940Z,17.31
2017-06-18T04:47:05.481Z,17.28
2017-06-18T04:47:46.025Z,17.22
2017-06-18T04:48:26.570Z,17.26
2017-06-18T04:49:07.122Z,17.34
2017-06-18T04:49:47.656Z,17.23
2017-06-18T04:50:28.192Z,17.3
2017-06-18T04:51:08.735Z,17.25
2017-06-18T04:51:49.277Z,17.28
2017-06-18T04:52:29.805Z,17.3
2017-06-18T04:53:10.356Z,17.31
2017-06-18T04:53:50.900Z,17.26
2017-06-18T04:54:31.453Z,17.36
2017-06-18T04:55:12.021Z,17.3
2017-06-18T04:55:52.560Z,17.38
2017-06-18T04:56:33.138Z,17.34
2017-06-18T04:57:13.676Z,17.37
2017-06-18T04:57:54.224Z,17.38
2017-06-18T04:58:34.762Z,17.34
2017-06-18T04:59:15.318Z,17.4
2017-06-18T04:59:55.867Z,17.4
2017-06-18T05:00:36.415Z,17.37
2017-06-18T05:01:16.962Z,17.38
2017-06-18T05:01:57.507Z,17.36
2017-06-18T05:02:38.051Z,17.36
2017-06-18T05:03:18.594Z,17.41
2017-06-18T05:03:59.142Z,17.43
2017-06-18T05:04:39.696Z,17.4
2017-06-18T05:05:20.262Z,17.46
2017-06-18T05:06:00.812Z,17.49
2017-06-18T05:06:41.353Z,17.51
2017-06-18T05:07:21.896Z,17.52
2017-06-18T05:08:02.435Z,17.49
2017-06-18T05:08:42.962Z,17.52
2017-06-18T05:09:23.506Z,17.49
2017-06-18T05:10:04.046Z,17.51
2017-06-18T05:10:44.632Z,17.59
2017-06-18T05:11:25.183Z,17.55
2017-06-18T05:12:05.722Z,17.62
2017-06-18T05:12:46.267Z,17.62
2017-06-18T05:13:26.810Z,17.59
2017-06-18T05:14:07.349Z,17.52
2017-06-18T05:14:47.887Z,17.66
2017-06-18T05:15:28.434Z,17.64
2017-06-18T05:16:08.993Z,17.66
2017-06-18T05:16:49.525Z,17.63
2017-06-18T05:17:30.064Z,17.72
2017-06-18T05:18:10.614Z,17.7
2017-06-18T05:18:51.154Z,17.77
2017-06-18T05:19:31.697Z,17.78
2017-06-18T05:20:12.247Z,17.79
2017-06-18T05:20:52.789Z,17.75
2017-06-18T05:21:33.326Z,17.77
2017-06-18T05:22:13.860Z,17.74
2017-06-18T05:22:54.405Z,17.74
2017-06-18T05:23:34.957Z,17.78
2017-06-18T05:24:15.502Z,17.81
2017-06-18T05:24:56.052Z,17.86
2017-06-18T05:25:36.597Z,17.89
2017-06-18T05:26:17.144Z,17.96
2017-06-18T05:26:57.709Z,17.93
2017-06-18T05:27:38.257Z,17.95
2017-06-18T05:28:18.799Z,17.96
2017-06-18T05:28:59.336Z,17.96
2017-06-18T05:29:39.890Z,18
2017-06-18T05:30:20.554Z,17.9
2017-06-18T05:31:01.104Z,18.03
2017-06-18T05:31:41.654Z,18
2017-06-18T05:32:22.196Z,18.08
2017-06-18T05:33:02.746Z,18.07
2017-06-18T05:33:43.289Z,18.14
2017-06-18T05:34:23.835Z,18.15
2017-06-18T05:35:04.385Z,18.15
2017-06-18T05:35:44.927Z,18.2
2017-06-18T05:36:25.464Z,18.17
2017-06-18T05:37:06.003Z,18.27
2017-06-18T05:37:46.542Z,18.35
2017-06-18T05:38:27.081Z,18.37
2017-06-18T05:39:07.614Z,18.42
2017-06-18T05:39:48.154Z,18.37
2017-06-18T05:40:28.711Z,18.48
2017-06-18T05:41:09.260Z,18.51
2017-06-18T05:41:49.812Z,18.52
2017-06-18T05:42:30.356Z,18.55
2017-06-18T05:43:10.910Z,18.63
2017-06-18T05:43:51.459Z,18.65
2017-06-18T05:44:32.007Z,18.66
2017-06-18T05:45:12.549Z,18.67
2017-06-18T05:45:53.091Z,18.69
2017-06-18T05:46:33.626Z,18.76
2017-06-18T05:47:14.174Z,18.76
2017-06-18T05:47:54.713Z,18.82
2017-06-18T05:48:35.247Z,18.94
2017-06-18T05:49:15.786Z,19.04
2017-06-18T05:49:56.335Z,19.02
2017-06-18T05:50:36.873Z,19.08
2017-06-18T05:51:17.422Z,19.08
2017-06-18T05:51:57.959Z,19.14
2017-06-18T05:52:38.838Z,19.25
2017-06-18T05:53:20.497Z,19.23
2017-06-18T05:54:01.348Z,19.23
2017-06-18T05:54:41.914Z,19.26
2017-06-18T05:55:22.454Z,19.4
2017-06-18T05:56:02.999Z,19.39
2017-06-18T05:56:43.533Z,19.48
2017-06-18T05:57:24.058Z,19.54
2017-06-18T05:58:04.587Z,19.58
2017-06-18T05:58:45.137Z,19.51
2017-06-18T05:59:25.681Z,19.55
2017-06-18T06:00:06.221Z,19.63
2017-06-18T06:00:46.772Z,19.71
2017-06-18T06:01:27.323Z,19.77
2017-06-18T06:02:07.876Z,19.8
2017-06-18T06:02:48.428Z,19.83
2017-06-18T06:03:28.977Z,19.86
2017-06-18T06:04:09.523Z,19.87
2017-06-18T06:04:50.073Z,19.98
2017-06-18T06:05:30.636Z,20.01
2017-06-18T06:06:11.185Z,20.11
2017-06-18T06:06:51.740Z,20.21
2017-06-18T06:07:32.285Z,20.2
2017-06-18T06:08:12.840Z,20.26
2017-06-18T06:08:53.387Z,20.26
2017-06-18T06:09:33.938Z,20.23
2017-06-18T06:10:14.493Z,20.29
2017-06-18T06:10:55.041Z,20.33
2017-06-18T06:11:35.602Z,20.31
2017-06-18T06:12:16.146Z,20.41
2017-06-18T06:12:56.688Z,20.47
2017-06-18T06:13:37.227Z,20.5
2017-06-18T06:14:17.770Z,20.51
2017-06-18T06:14:58.325Z,20.55
2017-06-18T06:15:38.862Z,20.55
2017-06-18T06:16:19.412Z,20.54
2017-06-18T06:16:59.957Z,20.54
2017-06-18T06:17:40.501Z,20.57
2017-06-18T06:18:21.043Z,20.54
2017-06-18T06:19:01.582Z,20.61
2017-06-18T06:19:42.111Z,20.58
2017-06-18T06:20:22.651Z,20.67
2017-06-18T06:21:03.199Z,20.82
2017-06-18T06:21:43.750Z,20.77
2017-06-18T06:22:24.300Z,20.84
2017-06-18T06:23:04.848Z,20.85
2017-06-18T06:23:45.396Z,20.92
2017-06-18T06:24:25.936Z,20.95
2017-06-18T06:25:06.487Z,21.03
2017-06-18T06:25:47.040Z,20.95
2017-06-18T06:26:27.578Z,21.03
2017-06-18T06:27:08.134Z,21.14
2017-06-18T06:27:48.664Z,21.21
2017-06-18T06:28:29.205Z,21.25
2017-06-18T06:29:09.745Z,21.19
2017-06-18T06:29:50.293Z,21.31
2017-06-18T06:30:30.840Z,21.38
2017-06-18T06:31:11.379Z,21.35
2017-06-18T06:31:51.930Z,21.38
2017-06-18T06:32:32.474Z,21.42
2017-06-18T06:33:13.021Z,21.44
2017-06-18T06:33:53.558Z,21.44
2017-06-18T06:34:34.105Z,21.56
2017-06-18T06:35:14.658Z,21.56
2017-06-18T06:35:55.213Z,21.5
2017-06-18T06:36:35.764Z,21.54
2017-06-18T06:37:16.313Z,21.54
2017-06-18T06:37:56.876Z,21.58
2017-06-18T06:38:37.446Z,21.52
2017-06-18T06:39:17.992Z,21.62
2017-06-18T06:39:58.537Z,21.58
2017-06-18T06:40:39.088Z,21.54
2017-06-18T06:41:19.638Z,21.61
2017-06-18T06:42:00.187Z,21.64
2017-06-18T06:42:40.732Z,21.77
2017-06-18T06:43:21.278Z,21.72
2017-06-18T06:44:01.831Z,21.74
2017-06-18T06:44:42.520Z,21.77
2017-06-18T06:45:23.072Z,21.83
2017-06-18T06:46:03.611Z,21.92
2017-06-18T06:46:44.158Z,21.92
2017-06-18T06:47:24.692Z,22.03
2017-06-18T06:48:05.279Z,22.1
2017-06-18T06:48:45.849Z,22.15
2017-06-18T06:49:26.401Z,22.2
2017-06-18T06:50:06.949Z,22.28
2017-06-18T06:50:47.475Z,22.1
2017-06-18T06:51:28.024Z,22.17
2017-06-18T06:52:08.568Z,22.22
2017-06-18T06:52:49.110Z,22.18
2017-06-18T06:53:29.672Z,22.24
2017-06-18T06:54:10.209Z,22.14
2017-06-18T06:54:50.734Z,22.14
2017-06-18T06:55:31.284Z,22.28
2017-06-18T06:56:11.825Z,22.27
2017-06-18T06:56:52.379Z,22.28
2017-06-18T06:57:32.910Z,22.28
2017-06-18T06:58:13.439Z,22.36
2017-06-18T06:58:53.996Z,22.46
2017-06-18T06:59:34.535Z,22.52
2017-06-18T07:00:15.083Z,22.46
2017-06-18T07:00:55.641Z,22.61
2017-06-18T07:01:36.169Z,22.64
2017-06-18T07:02:16.725Z,22.7
2017-06-18T07:02:57.270Z,22.77
2017-06-18T07:03:37.815Z,22.76
2017-06-18T07:04:18.368Z,22.82
2017-06-18T07:04:58.907Z,22.8
2017-06-18T07:05:39.463Z,22.85
2017-06-18T07:06:20.019Z,22.94
2017-06-18T07:07:00.557Z,22.92
2017-06-18T07:07:41.104Z,23
2017-06-18T07:08:21.671Z,23.07
2017-06-18T07:09:02.244Z,23.04
2017-06-18T07:09:42.773Z,23.13
2017-06-18T07:10:23.317Z,23.22
2017-06-18T07:11:03.867Z,23.23
2017-06-18T07:11:44.427Z,23.23
2017-06-18T07:12:24.991Z,23.15
2017-06-18T07:13:05.537Z,23.19
2017-06-18T07:13:46.084Z,23.19
2017-06-18T07:14:26.634Z,23.17
2017-06-18T07:15:07.189Z,23.1
2017-06-18T07:15:47.736Z,23.05
2017-06-18T07:16:28.285Z,23.09
2017-06-18T07:17:08.825Z,22.95
2017-06-18T07:17:49.365Z,22.83
2017-06-18T07:18:29.918Z,22.88
2017-06-18T07:19:10.473Z,22.79
2017-06-18T07:19:51.030Z,22.79
2017-06-18T07:20:31.590Z,22.77
2017-06-18T07:21:12.134Z,22.83
2017-06-18T07:21:52.693Z,22.92
2017-06-18T07:22:33.270Z,23
2017-06-18T07:23:13.860Z,22.97
2017-06-18T07:23:54.374Z,23.1
2017-06-18T07:24:34.898Z,23.07
2017-06-18T07:25:15.445Z,23.04
2017-06-18T07:25:55.995Z,23.16
2017-06-18T07:26:36.527Z,23.28
2017-06-18T07:27:17.084Z,23.28
2017-06-18T07:27:57.638Z,23.35
2017-06-18T07:28:38.188Z,23.47
2017-06-18T07:29:18.739Z,23.51
2017-06-18T07:29:59.293Z,23.61
2017-06-18T07:30:39.846Z,23.63
2017-06-18T07:31:20.394Z,23.65
2017-06-18T07:32:00.956Z,23.65
2017-06-18T07:32:41.497Z,23.63
2017-06-18T07:33:22.181Z,23.7
2017-06-18T07:34:03.083Z,23.75
2017-06-18T07:34:43.795Z,23.78
2017-06-18T07:35:24.486Z,23.9
2017-06-18T07:36:05.094Z,23.85
2017-06-18T07:36:45.744Z,23.93
2017-06-18T07:37:26.823Z,23.95
2017-06-18T07:38:07.896Z,24
2017-06-18T07:38:48.886Z,24.08
2017-06-18T07:39:29.602Z,24.09
2017-06-18T07:40:10.303Z,24.21
2017-06-18T07:40:51.012Z,24.1
2017-06-18T07:41:31.847Z,24.2
2017-06-18T07:42:12.397Z,24.25
2017-06-18T07:42:52.952Z,24.35
2017-06-18T07:43:33.512Z,24.43
2017-06-18T07:44:14.057Z,24.57
2017-06-18T07:44:54.616Z,24.6
2017-06-18T07:45:35.160Z,24.77
2017-06-18T07:46:15.711Z,24.76
2017-06-18T07:46:56.265Z,24.88
2017-06-18T07:47:36.816Z,24.9
2017-06-18T07:48:17.374Z,24.95
2017-06-18T07:48:57.918Z,24.9
2017-06-18T07:49:38.469Z,24.61
2017-06-18T07:50:19.009Z,24.53
2017-06-18T07:50:59.565Z,24.4
2017-06-18T07:51:40.114Z,24.16
2017-06-18T07:52:20.667Z,24.2
2017-06-18T07:53:01.220Z,24.03
2017-06-18T07:53:41.771Z,23.87
2017-06-18T07:54:22.353Z,23.76
2017-06-18T07:55:02.844Z,23.57
2017-06-18T07:55:43.390Z,23.57
2017-06-18T07:56:23.934Z,23.58
2017-06-18T07:57:05.050Z,23.63
2017-06-18T07:57:46.060Z,23.63
2017-06-18T07:58:27.216Z,23.7
2017-06-18T07:59:07.762Z,23.75
2017-06-18T07:59:48.320Z,23.76
2017-06-18T08:00:29.092Z,23.65
2017-06-18T08:01:09.627Z,23.7
2017-06-18T08:03:05.069Z,23.75
2017-06-18T08:03:46.057Z,23.8
2017-06-18T08:04:27.029Z,23.83
2017-06-18T08:05:07.766Z,23.73
2017-06-18T08:05:48.659Z,23.83
2017-06-18T08:06:29.209Z,23.72
2017-06-18T08:07:09.775Z,23.78
2017-06-18T08:07:50.320Z,23.76
2017-06-18T08:08:30.873Z,23.8
2017-06-18T08:09:11.416Z,23.79
2017-06-18T08:09:51.974Z,23.85
2017-06-18T08:10:32.529Z,23.84
2017-06-18T08:11:13.076Z,23.93
2017-06-18T08:11:53.629Z,23.97
2017-06-18T08:12:34.203Z,24.15
2017-06-18T08:13:14.777Z,24.21
2017-06-18T08:13:55.331Z,24.21
2017-06-18T08:14:35.919Z,24.45
2017-06-18T08:15:16.698Z,24.57
2017-06-18T08:15:57.254Z,24.65
2017-06-18T08:16:38.032Z,24.83
2017-06-18T08:17:18.972Z,24.87
2017-06-18T08:17:59.717Z,24.96
2017-06-18T08:18:40.683Z,24.99
2017-06-18T08:19:21.465Z,25.02
2017-06-18T08:20:02.014Z,24.99
2017-06-18T08:20:42.572Z,24.87
2017-06-18T08:21:23.106Z,24.67
2017-06-18T08:22:03.659Z,24.57
2017-06-18T08:22:44.202Z,24.42
2017-06-18T08:23:24.847Z,24.45
2017-06-18T08:24:05.391Z,24.42
2017-06-18T08:24:46.177Z,24.27
2017-06-18T08:25:26.872Z,24.21
2017-06-18T08:26:07.606Z,24.1
2017-06-18T08:26:48.152Z,24.2
2017-06-18T08:27:28.698Z,24.1
2017-06-18T08:28:09.406Z,24.15
2017-06-18T08:28:50.188Z,24.15
2017-06-18T08:29:30.745Z,24.18
2017-06-18T08:30:11.524Z,24.39
2017-06-18T08:30:52.075Z,24.76
2017-06-18T08:31:33.149Z,25.06
2017-06-18T08:32:13.691Z,25.18
2017-06-18T08:32:54.823Z,25.18
2017-06-18T08:33:35.648Z,25.1
2017-06-18T08:34:16.193Z,24.98
2017-06-18T08:34:56.728Z,24.84
2017-06-18T08:35:37.304Z,24.73
2017-06-18T08:36:17.857Z,24.58
2017-06-18T08:36:58.424Z,24.43
2017-06-18T08:37:38.966Z,24.22
2017-06-18T08:38:19.519Z,24.08
2017-06-18T08:39:00.064Z,24.03
2017-06-18T08:39:40.614Z,24.03
2017-06-18T08:40:21.185Z,23.94
2017-06-18T08:41:01.734Z,23.93
2017-06-18T08:41:42.275Z,23.94
2017-06-18T08:42:22.829Z,23.95
2017-06-18T08:43:03.398Z,23.94
2017-06-18T08:43:43.963Z,23.93
2017-06-18T08:44:24.548Z,23.94
2017-06-18T08:45:05.064Z,23.97
2017-06-18T08:45:45.603Z,23.98
2017-06-18T08:46:26.142Z,24